Hinesburg, VT (05461)

8:55 AM EST on December 21, 2014 (GMT -0500)
KVTHINES4 | Change Station
CLOSE
Current Station
Personal Weather Station
Location: Hinesburg, VT
Elevation: 344 ft
Nearby Weather Stations

Elev 344 ft 44.33 °N, 73.11 °W | Updated 50 seconds ago

Overcast
Overcast
21.0 °F
Feels Like 21 °F
N
0.7
Wind Variable Wind from NW
Gusts 1.6 mph

Today
High -- | Low -- °F
--% Chance of Precip.
Yesterday
High -- | Low -- °F
Precip. -- in
7:25 AM 4:16 PM
Waning Crescent, 0% visible
Pressure 30.38 in
Visibility 6.0 miles
Clouds Overcast 500 ft
Windchill 21 °F
Dew Point 15 °F
Humidity 77%
Rainfall 0.00 in
Snow Depth Not available.
UV 0 out of 12
Pollen .10 out of 12
Air Quality Not available.
Flu Activity Not available.
METAR KBTV 211254Z 00000KT 6SM BR OVC005 M08/M10 A3036 RMK AO2 SLP287 T10781100

More Conditions Fewer Conditions

Pressure 30.38 in
Visibility 6.0 miles
Clouds Overcast 500 ft
Windchill 21 °F
Dew Point 15 °F
Humidity 77%
Rainfall 0.00 in
Snow Depth Not available.
UV 0 out of 12
Pollen .10 out of 12
Air Quality Not available.
Flu Activity Not available.
METAR KBTV 211254Z 00000KT 6SM BR OVC005 M08/M10 A3036 RMK AO2 SLP287 T10781100

More Conditions Fewer Conditions

10-Day Weather Forecast

Almanac

Astronomy

Dec. 21, 2014 Rise Set
Actual Time
Civil Twilight
Nautical Twilight
Astronomical Twilight
Moon
Length of Visible Light
Length of Day
Tomorrow will be .
, % of the Moon is Illuminated

Today's Extremes

State Highs State Lows

Community

WunderPhotos

Upload Photos

1,779,386 photos uploaded!

WunderBlogs® & News

Nearby

Air Quality

  Air Quality AQ Index Pollutant
Not available.

Snow Depth

Station Depth Elevation

Earthquake Activity

City Distance Mag. Time & Date
Minimum magnitude displayed is 2.5.

Coastal Water Temperatures

Place Temperature

Nearby Weather Stations